SDM2025 UHMP-UEEE
Flight info
| Callsign | SDM2025 |
|---|---|
| Flight time | 2h 42m |
| Altitude | 26000 |
| Route | IDARI G912 OLMIN/K0819F340 W68 TUTTI/K0837F360 W68 LULEN W290 DOBUS DOBUS6C |
| Aircraft | A320/M-SDE3FGHIRWY/LB1 |
Departure
| Time | 2026-04-12 06:23 |
|---|---|
| Airport | Pevek Airport (UHMP) |
Arrival
| Time | 2026-04-12 09:05 |
|---|---|
| Airport | Platon Oyunsky Yakutsk International Airport (UEEE) |
| Time | Latitude | Longitude | Altitude | Speed | Heading |
|---|---|---|---|---|---|
| 2026-04-12 06:13 | 69.78730 | 170.60194 | -3 ft | 0 kts | 285° |
| 2026-04-12 06:18 | 69.78732 | 170.60176 | -3 ft | 1 kts | 285° |
| 2026-04-12 06:18 | 69.78735 | 170.60150 | -3 ft | 2 kts | 294° |
| 2026-04-12 06:18 | 69.78755 | 170.60100 | -2 ft | 6 kts | 336° |
| 2026-04-12 06:19 | 69.78841 | 170.59996 | -3 ft | 11 kts | 301° |
| 2026-04-12 06:19 | 69.78835 | 170.59784 | -2 ft | 8 kts | 258° |
| 2026-04-12 06:19 | 69.78831 | 170.59744 | -2 ft | 0 kts | 258° |
| 2026-04-12 06:20 | 69.78831 | 170.59729 | -2 ft | 4 kts | 258° |
| 2026-04-12 06:20 | 69.78818 | 170.59421 | -2 ft | 13 kts | 297° |
| 2026-04-12 06:20 | 69.78873 | 170.59341 | -2 ft | 13 kts | 346° |
| 2026-04-12 06:20 | 69.79001 | 170.59247 | -2 ft | 14 kts | 344° |
| 2026-04-12 06:21 | 69.79101 | 170.59168 | -2 ft | 15 kts | 345° |
| 2026-04-12 06:21 | 69.79206 | 170.59097 | -2 ft | 15 kts | 348° |
| 2026-04-12 06:21 | 69.79275 | 170.59053 | -2 ft | 10 kts | 347° |
| 2026-04-12 06:21 | 69.79376 | 170.59049 | -3 ft | 11 kts | 6° |
| 2026-04-12 06:22 | 69.79398 | 170.59016 | -3 ft | 5 kts | 272° |
| 2026-04-12 06:22 | 69.79342 | 170.59013 | -3 ft | 8 kts | 167° |
| 2026-04-12 06:22 | 69.79140 | 170.59146 | -2 ft | 62 kts | 169° |
| 2026-04-12 06:22 | 69.78514 | 170.59572 | 0 ft | 121 kts | 168° |
| 2026-04-12 06:23 | 69.77529 | 170.60219 | 96 ft | 159 kts | 167° |
| 2026-04-12 06:23 | 69.76505 | 170.60939 | 746 ft | 155 kts | 171° |
| 2026-04-12 06:23 | 69.75796 | 170.61383 | 1076 ft | 161 kts | 171° |
| 2026-04-12 06:23 | 69.74334 | 170.62282 | 1858 ft | 166 kts | 176° |
| 2026-04-12 06:24 | 69.73207 | 170.61784 | 2230 ft | 168 kts | 220° |
| 2026-04-12 06:24 | 69.72503 | 170.59174 | 2637 ft | 173 kts | 254° |
| 2026-04-12 06:24 | 69.72430 | 170.55688 | 3000 ft | 184 kts | 286° |
| 2026-04-12 06:24 | 69.73086 | 170.52300 | 3371 ft | 202 kts | 308° |
| 2026-04-12 06:25 | 69.73798 | 170.48682 | 3792 ft | 219 kts | 282° |
| 2026-04-12 06:25 | 69.73669 | 170.44240 | 4396 ft | 232 kts | 259° |
| 2026-04-12 06:25 | 69.73251 | 170.39745 | 5131 ft | 238 kts | 258° |
| 2026-04-12 06:25 | 69.72825 | 170.35101 | 5877 ft | 244 kts | 259° |
| 2026-04-12 06:26 | 69.72418 | 170.30434 | 6616 ft | 249 kts | 258° |
| 2026-04-12 06:26 | 69.72010 | 170.25536 | 7379 ft | 254 kts | 259° |
| 2026-04-12 06:26 | 69.71607 | 170.20572 | 8156 ft | 258 kts | 259° |
| 2026-04-12 06:26 | 69.71204 | 170.15517 | 8941 ft | 261 kts | 259° |
| 2026-04-12 06:27 | 69.70798 | 170.10406 | 9712 ft | 265 kts | 259° |
| 2026-04-12 06:27 | 69.70393 | 170.05278 | 10447 ft | 269 kts | 259° |
| 2026-04-12 06:27 | 69.69974 | 169.99957 | 10994 ft | 280 kts | 259° |
| 2026-04-12 06:27 | 69.69534 | 169.94385 | 11338 ft | 297 kts | 258° |
| 2026-04-12 06:28 | 69.69064 | 169.88449 | 11662 ft | 313 kts | 258° |
| 2026-04-12 06:28 | 69.68567 | 169.82198 | 12065 ft | 326 kts | 258° |
| 2026-04-12 06:28 | 69.68056 | 169.75815 | 12751 ft | 330 kts | 258° |
| 2026-04-12 06:28 | 69.67538 | 169.69382 | 13492 ft | 332 kts | 258° |
| 2026-04-12 06:29 | 69.67020 | 169.62964 | 14164 ft | 335 kts | 258° |
| 2026-04-12 06:29 | 69.66490 | 169.56447 | 14823 ft | 338 kts | 258° |
| 2026-04-12 06:29 | 69.65957 | 169.49904 | 15468 ft | 340 kts | 257° |
| 2026-04-12 06:29 | 69.65417 | 169.43326 | 16095 ft | 343 kts | 257° |
| 2026-04-12 06:30 | 69.64866 | 169.36630 | 16635 ft | 348 kts | 257° |
| 2026-04-12 06:30 | 69.64307 | 169.29884 | 17110 ft | 354 kts | 256° |
| 2026-04-12 06:30 | 69.63731 | 169.22960 | 17677 ft | 357 kts | 256° |
| 2026-04-12 06:30 | 69.63156 | 169.16075 | 18223 ft | 360 kts | 256° |
| 2026-04-12 06:31 | 69.62568 | 169.09078 | 18779 ft | 363 kts | 256° |
| 2026-04-12 06:31 | 69.61978 | 169.02094 | 19277 ft | 366 kts | 256° |
| 2026-04-12 06:31 | 69.61379 | 168.95053 | 19789 ft | 369 kts | 255° |
| 2026-04-12 06:31 | 69.60777 | 168.87996 | 20266 ft | 371 kts | 255° |
| 2026-04-12 06:32 | 69.60149 | 168.80698 | 20764 ft | 374 kts | 255° |
| 2026-04-12 06:32 | 69.59524 | 168.73467 | 21205 ft | 378 kts | 255° |
| 2026-04-12 06:32 | 69.58896 | 168.66242 | 21660 ft | 381 kts | 255° |
| 2026-04-12 06:32 | 69.58242 | 168.58754 | 22106 ft | 384 kts | 255° |
| 2026-04-12 06:33 | 69.57610 | 168.51553 | 22577 ft | 385 kts | 255° |
| 2026-04-12 06:33 | 69.56948 | 168.44058 | 23167 ft | 383 kts | 255° |
| 2026-04-12 06:33 | 69.56290 | 168.36649 | 23750 ft | 381 kts | 255° |
| 2026-04-12 06:33 | 69.55636 | 168.29306 | 24270 ft | 380 kts | 254° |
| 2026-04-12 06:34 | 69.54981 | 168.22005 | 24768 ft | 380 kts | 254° |
| 2026-04-12 06:34 | 69.54327 | 168.14745 | 25202 ft | 381 kts | 253° |
| 2026-04-12 06:34 | 69.53656 | 168.07340 | 25580 ft | 383 kts | 253° |
| 2026-04-12 06:34 | 69.52994 | 168.00092 | 25931 ft | 385 kts | 254° |
| 2026-04-12 06:35 | 69.51618 | 167.85123 | 26290 ft | 388 kts | 254° |
| 2026-04-12 06:35 | 69.50927 | 167.77653 | 26303 ft | 388 kts | 254° |
| 2026-04-12 06:35 | 69.50241 | 167.70285 | 26302 ft | 388 kts | 254° |
| 2026-04-12 06:36 | 69.49564 | 167.63039 | 26299 ft | 388 kts | 254° |
| 2026-04-12 06:36 | 69.48850 | 167.55450 | 26304 ft | 388 kts | 254° |
| 2026-04-12 06:36 | 69.48155 | 167.48108 | 26303 ft | 388 kts | 254° |
| 2026-04-12 06:36 | 69.47440 | 167.40578 | 26304 ft | 388 kts | 254° |
| 2026-04-12 06:37 | 69.46724 | 167.33078 | 26307 ft | 388 kts | 253° |
| 2026-04-12 06:37 | 69.46016 | 167.25702 | 26308 ft | 388 kts | 253° |
| 2026-04-12 06:37 | 69.45303 | 167.18306 | 26310 ft | 388 kts | 253° |
| 2026-04-12 06:37 | 69.44594 | 167.10986 | 26309 ft | 388 kts | 253° |
| 2026-04-12 06:38 | 69.44111 | 167.06023 | 26310 ft | 388 kts | 253° |
| 2026-04-12 06:38 | 69.43152 | 166.96222 | 26313 ft | 388 kts | 253° |
| 2026-04-12 06:38 | 69.42434 | 166.88934 | 26310 ft | 388 kts | 253° |
| 2026-04-12 06:38 | 69.41703 | 166.81554 | 26305 ft | 388 kts | 253° |
| 2026-04-12 06:39 | 69.40977 | 166.74254 | 26300 ft | 388 kts | 253° |
| 2026-04-12 06:39 | 69.40237 | 166.66855 | 26299 ft | 388 kts | 253° |
| 2026-04-12 06:39 | 69.39497 | 166.59500 | 26302 ft | 387 kts | 253° |
| 2026-04-12 06:39 | 69.38756 | 166.52158 | 26308 ft | 387 kts | 253° |
| 2026-04-12 06:40 | 69.38015 | 166.44861 | 26316 ft | 392 kts | 253° |
| 2026-04-12 06:40 | 69.37251 | 166.37381 | 26315 ft | 404 kts | 253° |
| 2026-04-12 06:40 | 69.36454 | 166.29617 | 26310 ft | 415 kts | 252° |
| 2026-04-12 06:40 | 69.35637 | 166.21687 | 26300 ft | 426 kts | 252° |
| 2026-04-12 06:41 | 69.34802 | 166.13623 | 26297 ft | 436 kts | 252° |
| 2026-04-12 06:41 | 69.33955 | 166.05496 | 26296 ft | 444 kts | 252° |
| 2026-04-12 06:41 | 69.33020 | 165.96719 | 26296 ft | 451 kts | 252° |
| 2026-04-12 06:41 | 69.32090 | 165.88266 | 26285 ft | 458 kts | 252° |
| 2026-04-12 06:42 | 69.31130 | 165.79646 | 26277 ft | 463 kts | 252° |
| 2026-04-12 06:42 | 69.30151 | 165.70927 | 26260 ft | 465 kts | 252° |
| 2026-04-12 06:42 | 69.29172 | 165.62253 | 26257 ft | 465 kts | 252° |
| 2026-04-12 06:42 | 69.28180 | 165.53496 | 26232 ft | 466 kts | 252° |
| 2026-04-12 06:43 | 69.27191 | 165.44812 | 26232 ft | 466 kts | 252° |
| 2026-04-12 06:43 | 69.26231 | 165.36430 | 26223 ft | 466 kts | 252° |
| 2026-04-12 06:43 | 69.25199 | 165.27455 | 26232 ft | 467 kts | 251° |
| 2026-04-12 06:43 | 69.24195 | 165.18761 | 26240 ft | 467 kts | 251° |
| 2026-04-12 06:44 | 69.23186 | 165.10071 | 26235 ft | 468 kts | 252° |
| 2026-04-12 06:44 | 69.22525 | 165.04402 | 26235 ft | 468 kts | 252° |
| 2026-04-12 06:44 | 69.21146 | 164.92650 | 26217 ft | 468 kts | 252° |
| 2026-04-12 06:44 | 69.20122 | 164.83969 | 26199 ft | 468 kts | 252° |
| 2026-04-12 06:45 | 69.19440 | 164.78221 | 26197 ft | 468 kts | 252° |
| 2026-04-12 06:45 | 69.18079 | 164.66803 | 26187 ft | 468 kts | 252° |
| 2026-04-12 06:45 | 69.17023 | 164.58003 | 26184 ft | 468 kts | 252° |
| 2026-04-12 06:45 | 69.15978 | 164.49345 | 26180 ft | 467 kts | 252° |
| 2026-04-12 06:46 | 69.14954 | 164.40897 | 26178 ft | 467 kts | 252° |
| 2026-04-12 06:46 | 69.13895 | 164.32193 | 26161 ft | 467 kts | 251° |
| 2026-04-12 06:46 | 69.12847 | 164.23630 | 26147 ft | 467 kts | 251° |
| 2026-04-12 06:46 | 69.11788 | 164.15007 | 26141 ft | 467 kts | 251° |
| 2026-04-12 06:47 | 69.10732 | 164.06464 | 26155 ft | 467 kts | 251° |
| 2026-04-12 06:47 | 69.09664 | 163.97862 | 26175 ft | 468 kts | 251° |
| 2026-04-12 06:47 | 69.08947 | 163.92117 | 26190 ft | 467 kts | 251° |
| 2026-04-12 06:47 | 69.07518 | 163.80727 | 26217 ft | 467 kts | 251° |
| 2026-04-12 06:48 | 69.06464 | 163.72377 | 26227 ft | 463 kts | 251° |
| 2026-04-12 06:48 | 69.05402 | 163.64000 | 26240 ft | 462 kts | 251° |
| 2026-04-12 06:48 | 69.04319 | 163.55498 | 26252 ft | 461 kts | 251° |
| 2026-04-12 06:48 | 69.03244 | 163.47099 | 26263 ft | 461 kts | 251° |
| 2026-04-12 06:49 | 69.02171 | 163.38759 | 26269 ft | 461 kts | 252° |
| 2026-04-12 06:49 | 69.01080 | 163.30321 | 26274 ft | 461 kts | 251° |
| 2026-04-12 06:49 | 68.99996 | 163.21957 | 26271 ft | 461 kts | 251° |
| 2026-04-12 06:49 | 68.98892 | 163.13492 | 26258 ft | 461 kts | 251° |
| 2026-04-12 06:50 | 68.97795 | 163.05122 | 26229 ft | 461 kts | 251° |
| 2026-04-12 06:50 | 68.96699 | 162.96799 | 26199 ft | 462 kts | 251° |
| 2026-04-12 06:50 | 68.95580 | 162.88347 | 26191 ft | 462 kts | 251° |
| 2026-04-12 06:50 | 68.94473 | 162.80029 | 26193 ft | 462 kts | 251° |
| 2026-04-12 06:51 | 68.93363 | 162.71730 | 26201 ft | 461 kts | 251° |
| 2026-04-12 06:51 | 68.92231 | 162.63313 | 26203 ft | 461 kts | 251° |
| 2026-04-12 06:51 | 68.91118 | 162.55077 | 26202 ft | 461 kts | 251° |
| 2026-04-12 06:51 | 68.89980 | 162.46707 | 26201 ft | 461 kts | 251° |
| 2026-04-12 06:52 | 68.88847 | 162.38478 | 26215 ft | 461 kts | 251° |
| 2026-04-12 06:52 | 68.87717 | 162.30328 | 26238 ft | 461 kts | 250° |
| 2026-04-12 06:52 | 68.86557 | 162.21939 | 26264 ft | 461 kts | 250° |
| 2026-04-12 06:52 | 68.85409 | 162.13644 | 26279 ft | 461 kts | 251° |
| 2026-04-12 06:53 | 68.84257 | 162.05365 | 26287 ft | 461 kts | 251° |
| 2026-04-12 06:53 | 68.83119 | 161.97226 | 26292 ft | 461 kts | 251° |
| 2026-04-12 06:53 | 68.81955 | 161.88934 | 26298 ft | 461 kts | 251° |
| 2026-04-12 06:53 | 68.80796 | 161.80725 | 26302 ft | 461 kts | 251° |
| 2026-04-12 06:54 | 68.79626 | 161.72475 | 26300 ft | 461 kts | 251° |
| 2026-04-12 06:54 | 68.78471 | 161.64363 | 26297 ft | 461 kts | 251° |
| 2026-04-12 06:54 | 68.77299 | 161.56175 | 26298 ft | 461 kts | 251° |
| 2026-04-12 06:54 | 68.76109 | 161.47914 | 26300 ft | 461 kts | 251° |
| 2026-04-12 06:55 | 68.74928 | 161.39752 | 26304 ft | 460 kts | 251° |
| 2026-04-12 06:55 | 68.73763 | 161.31682 | 26308 ft | 460 kts | 251° |
| 2026-04-12 06:55 | 68.72633 | 161.23469 | 26317 ft | 460 kts | 251° |
| 2026-04-12 06:55 | 68.71518 | 161.15212 | 26319 ft | 460 kts | 252° |
| 2026-04-12 06:56 | 68.70412 | 161.07053 | 26316 ft | 460 kts | 251° |
| 2026-04-12 06:56 | 68.69664 | 161.01567 | 26323 ft | 460 kts | 251° |
| 2026-04-12 06:56 | 68.68160 | 160.90634 | 26317 ft | 460 kts | 251° |
| 2026-04-12 06:56 | 68.67036 | 160.82536 | 26313 ft | 460 kts | 251° |
| 2026-04-12 06:57 | 68.65901 | 160.74397 | 26310 ft | 460 kts | 251° |
| 2026-04-12 06:57 | 68.64754 | 160.66223 | 26310 ft | 460 kts | 251° |
| 2026-04-12 06:57 | 68.63612 | 160.58122 | 26312 ft | 460 kts | 251° |
| 2026-04-12 06:57 | 68.62463 | 160.50026 | 26311 ft | 460 kts | 251° |
| 2026-04-12 06:58 | 68.61305 | 160.41890 | 26310 ft | 460 kts | 251° |
| 2026-04-12 06:58 | 68.60156 | 160.33832 | 26312 ft | 460 kts | 251° |
| 2026-04-12 06:58 | 68.58993 | 160.25720 | 26307 ft | 460 kts | 251° |
| 2026-04-12 06:58 | 68.57812 | 160.17526 | 26307 ft | 461 kts | 251° |
| 2026-04-12 06:59 | 68.56657 | 160.09547 | 26309 ft | 461 kts | 251° |
| 2026-04-12 06:59 | 68.55466 | 160.01363 | 26303 ft | 461 kts | 251° |
| 2026-04-12 06:59 | 68.54298 | 159.93381 | 26304 ft | 461 kts | 251° |
| 2026-04-12 07:00 | 68.51910 | 159.77174 | 26303 ft | 461 kts | 251° |
| 2026-04-12 07:00 | 68.50710 | 159.69095 | 26295 ft | 461 kts | 251° |
| 2026-04-12 07:00 | 68.49528 | 159.61156 | 26300 ft | 461 kts | 251° |
| 2026-04-12 07:00 | 68.48300 | 159.52953 | 26294 ft | 460 kts | 251° |
| 2026-04-12 07:01 | 68.47093 | 159.44922 | 26295 ft | 460 kts | 251° |
| 2026-04-12 07:01 | 68.45882 | 159.36899 | 26291 ft | 461 kts | 251° |
| 2026-04-12 07:01 | 68.44659 | 159.28828 | 26288 ft | 461 kts | 250° |
| 2026-04-12 07:01 | 68.43439 | 159.20796 | 26287 ft | 461 kts | 250° |
| 2026-04-12 07:02 | 68.42214 | 159.12773 | 26296 ft | 461 kts | 250° |
| 2026-04-12 07:02 | 68.40975 | 159.04700 | 26290 ft | 461 kts | 250° |
| 2026-04-12 07:02 | 68.40160 | 158.99399 | 26295 ft | 461 kts | 250° |
| 2026-04-12 07:02 | 68.38514 | 158.88754 | 26300 ft | 461 kts | 250° |
| 2026-04-12 07:03 | 68.37270 | 158.80749 | 26290 ft | 461 kts | 250° |
| 2026-04-12 07:03 | 68.36017 | 158.72722 | 26298 ft | 461 kts | 250° |
| 2026-04-12 07:03 | 68.34777 | 158.64813 | 26291 ft | 461 kts | 250° |
| 2026-04-12 07:03 | 68.33515 | 158.56796 | 26294 ft | 461 kts | 250° |
| 2026-04-12 07:04 | 68.32252 | 158.48813 | 26298 ft | 461 kts | 250° |
| 2026-04-12 07:04 | 68.30994 | 158.40886 | 26284 ft | 461 kts | 250° |
| 2026-04-12 07:04 | 68.29735 | 158.32979 | 26293 ft | 461 kts | 250° |
| 2026-04-12 07:04 | 68.28452 | 158.24957 | 26285 ft | 462 kts | 250° |
| 2026-04-12 07:05 | 68.27186 | 158.17058 | 26293 ft | 462 kts | 250° |
| 2026-04-12 07:05 | 68.25919 | 158.09196 | 26287 ft | 462 kts | 250° |
| 2026-04-12 07:05 | 68.24628 | 158.01225 | 26279 ft | 462 kts | 250° |
| 2026-04-12 07:05 | 68.23342 | 157.93312 | 26276 ft | 462 kts | 250° |
| 2026-04-12 07:06 | 68.22059 | 157.85454 | 26282 ft | 462 kts | 250° |
| 2026-04-12 07:06 | 68.20762 | 157.77542 | 26290 ft | 462 kts | 250° |
| 2026-04-12 07:06 | 68.19474 | 157.69722 | 26288 ft | 462 kts | 250° |
| 2026-04-12 07:06 | 68.18179 | 157.61885 | 26290 ft | 462 kts | 250° |
| 2026-04-12 07:07 | 68.16884 | 157.54085 | 26285 ft | 462 kts | 250° |
| 2026-04-12 07:07 | 68.15575 | 157.46234 | 26290 ft | 462 kts | 250° |
| 2026-04-12 07:07 | 68.14269 | 157.38426 | 26290 ft | 462 kts | 250° |
| 2026-04-12 07:07 | 68.12945 | 157.30541 | 26293 ft | 462 kts | 249° |
| 2026-04-12 07:08 | 68.11626 | 157.22708 | 26284 ft | 463 kts | 249° |
| 2026-04-12 07:08 | 68.10314 | 157.14949 | 26287 ft | 462 kts | 249° |
| 2026-04-12 07:08 | 68.08987 | 157.07135 | 26289 ft | 463 kts | 249° |
| 2026-04-12 07:08 | 68.07667 | 156.99400 | 26289 ft | 462 kts | 249° |
| 2026-04-12 07:09 | 68.06770 | 156.94161 | 26285 ft | 462 kts | 249° |
| 2026-04-12 07:09 | 68.04995 | 156.83839 | 26283 ft | 462 kts | 249° |
| 2026-04-12 07:09 | 68.03645 | 156.76033 | 26285 ft | 462 kts | 249° |
| 2026-04-12 07:09 | 68.02313 | 156.68359 | 26281 ft | 462 kts | 249° |
| 2026-04-12 07:10 | 68.00954 | 156.60565 | 26281 ft | 462 kts | 249° |
| 2026-04-12 07:10 | 67.99607 | 156.52875 | 26281 ft | 462 kts | 248° |
| 2026-04-12 07:10 | 67.98253 | 156.45174 | 26283 ft | 462 kts | 249° |
| 2026-04-12 07:10 | 67.96889 | 156.37431 | 26281 ft | 462 kts | 249° |
| 2026-04-12 07:11 | 67.95540 | 156.29787 | 26284 ft | 462 kts | 248° |
| 2026-04-12 07:11 | 67.94179 | 156.22105 | 26277 ft | 462 kts | 248° |
| 2026-04-12 07:11 | 67.92803 | 156.14381 | 26278 ft | 462 kts | 248° |
| 2026-04-12 07:11 | 67.91433 | 156.06734 | 26275 ft | 462 kts | 247° |
| 2026-04-12 07:12 | 67.90060 | 155.99115 | 26278 ft | 462 kts | 247° |
| 2026-04-12 07:12 | 67.89122 | 155.93953 | 26283 ft | 464 kts | 247° |
| 2026-04-12 07:12 | 67.87251 | 155.83777 | 26286 ft | 462 kts | 247° |
| 2026-04-12 07:12 | 67.85848 | 155.76160 | 26283 ft | 461 kts | 247° |
| 2026-04-12 07:13 | 67.84917 | 155.71109 | 26280 ft | 461 kts | 247° |
| 2026-04-12 07:13 | 67.83055 | 155.61014 | 26283 ft | 461 kts | 247° |
| 2026-04-12 07:13 | 67.82113 | 155.55917 | 26282 ft | 461 kts | 247° |
| 2026-04-12 07:13 | 67.80246 | 155.45847 | 26288 ft | 460 kts | 247° |
| 2026-04-12 07:14 | 67.78844 | 155.38313 | 26287 ft | 460 kts | 247° |
| 2026-04-12 07:14 | 67.77441 | 155.30795 | 26276 ft | 460 kts | 246° |
| 2026-04-12 07:14 | 67.76014 | 155.23172 | 26289 ft | 460 kts | 246° |
| 2026-04-12 07:14 | 67.74620 | 155.15745 | 26290 ft | 460 kts | 246° |
| 2026-04-12 07:15 | 67.73671 | 155.10710 | 26283 ft | 459 kts | 246° |
| 2026-04-12 07:15 | 67.71780 | 155.00716 | 26289 ft | 459 kts | 246° |
| 2026-04-12 07:15 | 67.70348 | 154.93202 | 26284 ft | 459 kts | 246° |
| 2026-04-12 07:15 | 67.68918 | 154.85722 | 26273 ft | 459 kts | 246° |
| 2026-04-12 07:16 | 67.67487 | 154.78258 | 26274 ft | 459 kts | 246° |
| 2026-04-12 07:16 | 67.66074 | 154.70856 | 26277 ft | 458 kts | 246° |
| 2026-04-12 07:16 | 67.65125 | 154.65872 | 26273 ft | 458 kts | 246° |
| 2026-04-12 07:16 | 67.63226 | 154.55948 | 26270 ft | 458 kts | 246° |
| 2026-04-12 07:17 | 67.61800 | 154.48531 | 26269 ft | 458 kts | 246° |
| 2026-04-12 07:17 | 67.60377 | 154.41171 | 26263 ft | 457 kts | 246° |
| 2026-04-12 07:17 | 67.58940 | 154.33758 | 26256 ft | 457 kts | 245° |
| 2026-04-12 07:17 | 67.57511 | 154.26417 | 26261 ft | 457 kts | 245° |
| 2026-04-12 07:18 | 67.56069 | 154.19031 | 26262 ft | 457 kts | 245° |
| 2026-04-12 07:18 | 67.54624 | 154.11656 | 26256 ft | 457 kts | 245° |
| 2026-04-12 07:18 | 67.53181 | 154.04335 | 26259 ft | 457 kts | 245° |
| 2026-04-12 07:18 | 67.51722 | 153.96956 | 26262 ft | 457 kts | 245° |
| 2026-04-12 07:19 | 67.50263 | 153.89610 | 26264 ft | 457 kts | 245° |
| 2026-04-12 07:19 | 67.48817 | 153.82306 | 26260 ft | 456 kts | 246° |
| 2026-04-12 07:19 | 67.47473 | 153.74890 | 26260 ft | 455 kts | 249° |
| 2026-04-12 07:19 | 67.46268 | 153.67322 | 26258 ft | 453 kts | 252° |
| 2026-04-12 07:20 | 67.45201 | 153.59593 | 26254 ft | 452 kts | 255° |
| 2026-04-12 07:20 | 67.44245 | 153.51894 | 26252 ft | 452 kts | 255° |
| 2026-04-12 07:20 | 67.43281 | 153.44220 | 26249 ft | 451 kts | 255° |
| 2026-04-12 07:20 | 67.42301 | 153.36461 | 26248 ft | 451 kts | 255° |
| 2026-04-12 07:21 | 67.41322 | 153.28732 | 26242 ft | 452 kts | 254° |
| 2026-04-12 07:21 | 67.40340 | 153.21011 | 26240 ft | 452 kts | 254° |
| 2026-04-12 07:21 | 67.39688 | 153.15904 | 26236 ft | 451 kts | 254° |
| 2026-04-12 07:21 | 67.38371 | 153.05624 | 26235 ft | 451 kts | 255° |
| 2026-04-12 07:22 | 67.37391 | 152.98025 | 26232 ft | 451 kts | 254° |
| 2026-04-12 07:22 | 67.36395 | 152.90340 | 26230 ft | 451 kts | 255° |
| 2026-04-12 07:22 | 67.35723 | 152.85182 | 26228 ft | 451 kts | 255° |
| 2026-04-12 07:22 | 67.34392 | 152.75008 | 26232 ft | 450 kts | 255° |
| 2026-04-12 07:23 | 67.33385 | 152.67351 | 26225 ft | 450 kts | 255° |
| 2026-04-12 07:23 | 67.32380 | 152.59714 | 26228 ft | 450 kts | 255° |
| 2026-04-12 07:23 | 67.31373 | 152.52075 | 26223 ft | 450 kts | 255° |
| 2026-04-12 07:23 | 67.30363 | 152.44450 | 26220 ft | 450 kts | 255° |
| 2026-04-12 07:24 | 67.29349 | 152.36845 | 26223 ft | 449 kts | 255° |
| 2026-04-12 07:24 | 67.28336 | 152.29291 | 26222 ft | 449 kts | 254° |
| 2026-04-12 07:24 | 67.27303 | 152.21603 | 26219 ft | 449 kts | 254° |
| 2026-04-12 07:24 | 67.26281 | 152.14044 | 26219 ft | 450 kts | 254° |
| 2026-04-12 07:25 | 67.25252 | 152.06476 | 26214 ft | 449 kts | 254° |
| 2026-04-12 07:25 | 67.24213 | 151.98877 | 26215 ft | 449 kts | 254° |
| 2026-04-12 07:25 | 67.23169 | 151.91280 | 26215 ft | 449 kts | 254° |
| 2026-04-12 07:25 | 67.22137 | 151.83797 | 26217 ft | 448 kts | 254° |
| 2026-04-12 07:26 | 67.21084 | 151.76199 | 26222 ft | 448 kts | 253° |
| 2026-04-12 07:26 | 67.20044 | 151.68735 | 26219 ft | 448 kts | 253° |
| 2026-04-12 07:26 | 67.18983 | 151.61159 | 26219 ft | 448 kts | 253° |
| 2026-04-12 07:26 | 67.17936 | 151.53722 | 26215 ft | 447 kts | 253° |
| 2026-04-12 07:27 | 67.16878 | 151.46220 | 26209 ft | 447 kts | 253° |
| 2026-04-12 07:27 | 67.15816 | 151.38704 | 26216 ft | 447 kts | 253° |
| 2026-04-12 07:27 | 67.14771 | 151.31276 | 26220 ft | 447 kts | 253° |
| 2026-04-12 07:27 | 67.13701 | 151.23715 | 26207 ft | 447 kts | 253° |
| 2026-04-12 07:28 | 67.12637 | 151.16237 | 26206 ft | 447 kts | 253° |
| 2026-04-12 07:28 | 67.11575 | 151.08827 | 26207 ft | 447 kts | 252° |
| 2026-04-12 07:28 | 67.10508 | 151.01408 | 26220 ft | 446 kts | 252° |
| 2026-04-12 07:28 | 67.09425 | 150.93919 | 26211 ft | 446 kts | 252° |
| 2026-04-12 07:29 | 67.08701 | 150.88942 | 26212 ft | 446 kts | 252° |
| 2026-04-12 07:29 | 67.07275 | 150.79173 | 26213 ft | 446 kts | 252° |
| 2026-04-12 07:29 | 67.06185 | 150.71742 | 26211 ft | 446 kts | 252° |
| 2026-04-12 07:29 | 67.05089 | 150.64302 | 26208 ft | 446 kts | 252° |
| 2026-04-12 07:30 | 67.04003 | 150.56957 | 26212 ft | 446 kts | 252° |
| 2026-04-12 07:30 | 67.02902 | 150.49539 | 26202 ft | 445 kts | 252° |
| 2026-04-12 07:30 | 67.01803 | 150.42172 | 26202 ft | 446 kts | 252° |
| 2026-04-12 07:30 | 67.00703 | 150.34827 | 26201 ft | 445 kts | 251° |
| 2026-04-12 07:31 | 66.99598 | 150.27470 | 26197 ft | 445 kts | 251° |
| 2026-04-12 07:31 | 66.98491 | 150.20125 | 26195 ft | 445 kts | 251° |
| 2026-04-12 07:31 | 66.97387 | 150.12825 | 26191 ft | 446 kts | 251° |
| 2026-04-12 07:31 | 66.96271 | 150.05482 | 26182 ft | 445 kts | 251° |
| 2026-04-12 07:32 | 66.95149 | 149.98129 | 26189 ft | 445 kts | 251° |
| 2026-04-12 07:32 | 66.94026 | 149.90802 | 26176 ft | 445 kts | 251° |
| 2026-04-12 07:32 | 66.92909 | 149.83540 | 26174 ft | 445 kts | 251° |
| 2026-04-12 07:32 | 66.91788 | 149.76286 | 26186 ft | 445 kts | 251° |
| 2026-04-12 07:33 | 66.90655 | 149.68986 | 26172 ft | 445 kts | 251° |
| 2026-04-12 07:33 | 66.89507 | 149.61627 | 26173 ft | 445 kts | 251° |
| 2026-04-12 07:33 | 66.88358 | 149.54372 | 26176 ft | 444 kts | 251° |
| 2026-04-12 07:33 | 66.87209 | 149.47145 | 26167 ft | 444 kts | 251° |
| 2026-04-12 07:34 | 66.86053 | 149.39877 | 26173 ft | 444 kts | 251° |
| 2026-04-12 07:34 | 66.84908 | 149.32681 | 26157 ft | 444 kts | 250° |
| 2026-04-12 07:34 | 66.83755 | 149.25433 | 26158 ft | 444 kts | 250° |
| 2026-04-12 07:34 | 66.82599 | 149.18175 | 26159 ft | 444 kts | 250° |
| 2026-04-12 07:35 | 66.81437 | 149.10910 | 26163 ft | 444 kts | 250° |
| 2026-04-12 07:35 | 66.80284 | 149.03731 | 26155 ft | 444 kts | 250° |
| 2026-04-12 07:35 | 66.79124 | 148.96530 | 26150 ft | 443 kts | 250° |
| 2026-04-12 07:35 | 66.77956 | 148.89310 | 26158 ft | 443 kts | 250° |
| 2026-04-12 07:36 | 66.76786 | 148.82104 | 26149 ft | 443 kts | 250° |
| 2026-04-12 07:36 | 66.75626 | 148.74991 | 26151 ft | 443 kts | 250° |
| 2026-04-12 07:36 | 66.74452 | 148.67821 | 26154 ft | 443 kts | 250° |
| 2026-04-12 07:36 | 66.73289 | 148.60739 | 26140 ft | 443 kts | 250° |
| 2026-04-12 07:37 | 66.72102 | 148.53532 | 26152 ft | 442 kts | 250° |
| 2026-04-12 07:37 | 66.70918 | 148.46385 | 26143 ft | 442 kts | 250° |
| 2026-04-12 07:37 | 66.69733 | 148.39252 | 26146 ft | 442 kts | 250° |
| 2026-04-12 07:37 | 66.68553 | 148.32176 | 26142 ft | 442 kts | 249° |
| 2026-04-12 07:38 | 66.67364 | 148.25079 | 26140 ft | 441 kts | 249° |
| 2026-04-12 07:38 | 66.66164 | 148.17934 | 26134 ft | 441 kts | 249° |
| 2026-04-12 07:38 | 66.64987 | 148.10950 | 26143 ft | 441 kts | 249° |
| 2026-04-12 07:38 | 66.63792 | 148.03859 | 26133 ft | 441 kts | 249° |
| 2026-04-12 07:39 | 66.62598 | 147.96805 | 26129 ft | 441 kts | 249° |
| 2026-04-12 07:39 | 66.61383 | 147.89647 | 26125 ft | 441 kts | 249° |
| 2026-04-12 07:39 | 66.60188 | 147.82648 | 26130 ft | 440 kts | 249° |
| 2026-04-12 07:39 | 66.58983 | 147.75619 | 26124 ft | 440 kts | 249° |
| 2026-04-12 07:40 | 66.58175 | 147.70921 | 26116 ft | 440 kts | 248° |
| 2026-04-12 07:40 | 66.56558 | 147.61560 | 26114 ft | 440 kts | 248° |
| 2026-04-12 07:40 | 66.55342 | 147.54549 | 26108 ft | 440 kts | 248° |
| 2026-04-12 07:40 | 66.54118 | 147.47517 | 26100 ft | 440 kts | 248° |
| 2026-04-12 07:41 | 66.52894 | 147.40512 | 26098 ft | 440 kts | 248° |
| 2026-04-12 07:41 | 66.51660 | 147.33479 | 26098 ft | 440 kts | 247° |
| 2026-04-12 07:41 | 66.50841 | 147.28818 | 26091 ft | 440 kts | 247° |
| 2026-04-12 07:41 | 66.49213 | 147.19577 | 26089 ft | 440 kts | 247° |
| 2026-04-12 07:42 | 66.47974 | 147.12573 | 26077 ft | 440 kts | 247° |
| 2026-04-12 07:42 | 66.46738 | 147.05620 | 26060 ft | 440 kts | 247° |
| 2026-04-12 07:42 | 66.45494 | 146.98651 | 26055 ft | 440 kts | 247° |
| 2026-04-12 07:43 | 66.41759 | 146.77872 | 26026 ft | 440 kts | 247° |
| 2026-04-12 07:43 | 66.40497 | 146.70911 | 26008 ft | 440 kts | 247° |
| 2026-04-12 07:43 | 66.39236 | 146.63977 | 26004 ft | 440 kts | 246° |
| 2026-04-12 07:44 | 66.37981 | 146.57103 | 25991 ft | 440 kts | 247° |
| 2026-04-12 07:44 | 66.36722 | 146.50240 | 25971 ft | 440 kts | 246° |
| 2026-04-12 07:44 | 66.35452 | 146.43330 | 25946 ft | 440 kts | 246° |
| 2026-04-12 07:44 | 66.34182 | 146.36418 | 25925 ft | 440 kts | 246° |
| 2026-04-12 07:45 | 66.32905 | 146.29466 | 25891 ft | 440 kts | 246° |
| 2026-04-12 07:45 | 66.31651 | 146.22653 | 25877 ft | 440 kts | 246° |
| 2026-04-12 07:45 | 66.30372 | 146.15733 | 25862 ft | 440 kts | 246° |
| 2026-04-12 07:45 | 66.29085 | 146.08824 | 25845 ft | 440 kts | 245° |
| 2026-04-12 07:46 | 66.27811 | 146.02026 | 25847 ft | 441 kts | 245° |
| 2026-04-12 07:46 | 66.26524 | 145.95181 | 25832 ft | 441 kts | 245° |
| 2026-04-12 07:46 | 66.25238 | 145.88351 | 25831 ft | 440 kts | 245° |
| 2026-04-12 07:46 | 66.23951 | 145.81517 | 25820 ft | 440 kts | 245° |
| 2026-04-12 07:47 | 66.22655 | 145.74666 | 25831 ft | 440 kts | 245° |
| 2026-04-12 07:47 | 66.21349 | 145.67801 | 25827 ft | 440 kts | 245° |
| 2026-04-12 07:47 | 66.20058 | 145.61046 | 25826 ft | 441 kts | 245° |
| 2026-04-12 07:47 | 66.18735 | 145.54176 | 25847 ft | 440 kts | 245° |
| 2026-04-12 07:48 | 66.17429 | 145.47409 | 25835 ft | 440 kts | 245° |
| 2026-04-12 07:48 | 66.16099 | 145.40550 | 25850 ft | 440 kts | 245° |
| 2026-04-12 07:48 | 66.14793 | 145.33823 | 25851 ft | 440 kts | 244° |
| 2026-04-12 07:48 | 66.13473 | 145.27005 | 25847 ft | 440 kts | 244° |
| 2026-04-12 07:49 | 66.12165 | 145.20238 | 25863 ft | 440 kts | 244° |
| 2026-04-12 07:49 | 66.10839 | 145.13422 | 25896 ft | 440 kts | 244° |
| 2026-04-12 07:49 | 66.09523 | 145.06692 | 25920 ft | 440 kts | 244° |
| 2026-04-12 07:49 | 66.08185 | 144.99890 | 25939 ft | 440 kts | 244° |
| 2026-04-12 07:50 | 66.06865 | 144.93207 | 25963 ft | 440 kts | 244° |
| 2026-04-12 07:50 | 66.05520 | 144.86426 | 25989 ft | 440 kts | 244° |
| 2026-04-12 07:50 | 66.04181 | 144.79713 | 25998 ft | 440 kts | 244° |
| 2026-04-12 07:50 | 66.02832 | 144.72965 | 26017 ft | 440 kts | 244° |
| 2026-04-12 07:51 | 66.01490 | 144.66272 | 26013 ft | 440 kts | 244° |
| 2026-04-12 07:51 | 66.00144 | 144.59557 | 26004 ft | 440 kts | 244° |
| 2026-04-12 07:51 | 65.98798 | 144.52828 | 25983 ft | 440 kts | 244° |
| 2026-04-12 07:51 | 65.97450 | 144.46121 | 25964 ft | 440 kts | 244° |
| 2026-04-12 07:52 | 65.96109 | 144.39484 | 25947 ft | 440 kts | 244° |
| 2026-04-12 07:52 | 65.94750 | 144.32785 | 25958 ft | 440 kts | 243° |
| 2026-04-12 07:52 | 65.93400 | 144.26157 | 25963 ft | 440 kts | 243° |
| 2026-04-12 07:52 | 65.92037 | 144.19485 | 25971 ft | 440 kts | 243° |
| 2026-04-12 07:53 | 65.90676 | 144.12857 | 25978 ft | 440 kts | 243° |
| 2026-04-12 07:53 | 65.89308 | 144.06232 | 25986 ft | 439 kts | 242° |
| 2026-04-12 07:53 | 65.87926 | 143.99614 | 25988 ft | 439 kts | 242° |
| 2026-04-12 07:53 | 65.86534 | 143.92972 | 25992 ft | 439 kts | 242° |
| 2026-04-12 07:54 | 65.85146 | 143.86334 | 25989 ft | 439 kts | 243° |
| 2026-04-12 07:54 | 65.83778 | 143.79767 | 25988 ft | 439 kts | 243° |
| 2026-04-12 07:54 | 65.82399 | 143.73155 | 25986 ft | 438 kts | 243° |
| 2026-04-12 07:54 | 65.81022 | 143.66585 | 25977 ft | 439 kts | 243° |
| 2026-04-12 07:55 | 65.79633 | 143.59985 | 25957 ft | 439 kts | 242° |
| 2026-04-12 07:55 | 65.78246 | 143.53420 | 25933 ft | 438 kts | 242° |
| 2026-04-12 07:55 | 65.76867 | 143.46912 | 25911 ft | 439 kts | 242° |
| 2026-04-12 07:55 | 65.75468 | 143.40341 | 25913 ft | 438 kts | 242° |
| 2026-04-12 07:56 | 65.74068 | 143.33775 | 25917 ft | 438 kts | 241° |
| 2026-04-12 07:56 | 65.72662 | 143.27212 | 25924 ft | 438 kts | 241° |
| 2026-04-12 07:56 | 65.71263 | 143.20680 | 25924 ft | 438 kts | 241° |
| 2026-04-12 07:56 | 65.69871 | 143.14197 | 25925 ft | 438 kts | 242° |
| 2026-04-12 07:57 | 65.68470 | 143.07667 | 25893 ft | 437 kts | 242° |
| 2026-04-12 07:57 | 65.67082 | 143.01225 | 25862 ft | 438 kts | 242° |
| 2026-04-12 07:57 | 65.65674 | 142.94714 | 25845 ft | 438 kts | 241° |
| 2026-04-12 07:57 | 65.64252 | 142.88174 | 25839 ft | 437 kts | 241° |
| 2026-04-12 07:58 | 65.62844 | 142.81725 | 25856 ft | 437 kts | 241° |
| 2026-04-12 07:58 | 65.61424 | 142.75244 | 25836 ft | 437 kts | 241° |
| 2026-04-12 07:58 | 65.60010 | 142.68810 | 25835 ft | 437 kts | 241° |
| 2026-04-12 07:58 | 65.58580 | 142.62329 | 25830 ft | 437 kts | 241° |
| 2026-04-12 07:59 | 65.57156 | 142.55881 | 25840 ft | 437 kts | 241° |
| 2026-04-12 07:59 | 65.55737 | 142.49455 | 25833 ft | 436 kts | 241° |
| 2026-04-12 07:59 | 65.54312 | 142.43022 | 25848 ft | 436 kts | 241° |
| 2026-04-12 07:59 | 65.52886 | 142.36618 | 25840 ft | 436 kts | 241° |
| 2026-04-12 08:00 | 65.51473 | 142.30290 | 25835 ft | 435 kts | 240° |
| 2026-04-12 08:00 | 65.50025 | 142.23820 | 25841 ft | 435 kts | 240° |
| 2026-04-12 08:00 | 65.49072 | 142.19571 | 25829 ft | 435 kts | 240° |
| 2026-04-12 08:00 | 65.47162 | 142.11093 | 25829 ft | 434 kts | 240° |
| 2026-04-12 08:01 | 65.45736 | 142.04794 | 25826 ft | 434 kts | 240° |
| 2026-04-12 08:01 | 65.44302 | 141.98477 | 25816 ft | 435 kts | 240° |
| 2026-04-12 08:01 | 65.42840 | 141.92058 | 25817 ft | 434 kts | 240° |
| 2026-04-12 08:01 | 65.41398 | 141.85753 | 25802 ft | 434 kts | 240° |
| 2026-04-12 08:02 | 65.39942 | 141.79404 | 25800 ft | 434 kts | 240° |
| 2026-04-12 08:02 | 65.38489 | 141.73082 | 25810 ft | 434 kts | 239° |
| 2026-04-12 08:02 | 65.37046 | 141.66838 | 25792 ft | 434 kts | 239° |
| 2026-04-12 08:02 | 65.35574 | 141.60483 | 25781 ft | 435 kts | 240° |
| 2026-04-12 08:03 | 65.34115 | 141.54202 | 25782 ft | 435 kts | 240° |
| 2026-04-12 08:03 | 65.32644 | 141.47891 | 25784 ft | 434 kts | 239° |
| 2026-04-12 08:03 | 65.31178 | 141.41621 | 25772 ft | 434 kts | 239° |
| 2026-04-12 08:03 | 65.29708 | 141.35344 | 25760 ft | 434 kts | 239° |
| 2026-04-12 08:04 | 65.28244 | 141.29066 | 25763 ft | 434 kts | 239° |
| 2026-04-12 08:04 | 65.26796 | 141.22862 | 25758 ft | 434 kts | 239° |
| 2026-04-12 08:04 | 65.25314 | 141.16544 | 25764 ft | 434 kts | 239° |
| 2026-04-12 08:04 | 65.23853 | 141.10338 | 25779 ft | 434 kts | 239° |
| 2026-04-12 08:05 | 65.22385 | 141.04132 | 25802 ft | 434 kts | 238° |
| 2026-04-12 08:05 | 65.20886 | 140.97826 | 25810 ft | 433 kts | 238° |
| 2026-04-12 08:05 | 65.19424 | 140.91692 | 25820 ft | 433 kts | 238° |
| 2026-04-12 08:05 | 65.17927 | 140.85431 | 25823 ft | 433 kts | 238° |
| 2026-04-12 08:06 | 65.16446 | 140.79259 | 25829 ft | 433 kts | 238° |
| 2026-04-12 08:06 | 65.14965 | 140.73108 | 25832 ft | 433 kts | 238° |
| 2026-04-12 08:06 | 65.13464 | 140.66893 | 25830 ft | 433 kts | 238° |
| 2026-04-12 08:06 | 65.11983 | 140.60776 | 25826 ft | 433 kts | 238° |
| 2026-04-12 08:07 | 65.10478 | 140.54578 | 25815 ft | 433 kts | 238° |
| 2026-04-12 08:07 | 65.08986 | 140.48453 | 25810 ft | 433 kts | 238° |
| 2026-04-12 08:07 | 65.07476 | 140.42282 | 25803 ft | 433 kts | 238° |
| 2026-04-12 08:07 | 65.05973 | 140.36159 | 25795 ft | 433 kts | 238° |
| 2026-04-12 08:08 | 65.04461 | 140.30002 | 25782 ft | 433 kts | 237° |
| 2026-04-12 08:08 | 65.02966 | 140.23921 | 25777 ft | 433 kts | 237° |
| 2026-04-12 08:08 | 65.01457 | 140.17772 | 25780 ft | 432 kts | 237° |
| 2026-04-12 08:08 | 64.99960 | 140.11667 | 25784 ft | 432 kts | 237° |
| 2026-04-12 08:09 | 64.98450 | 140.05541 | 25800 ft | 432 kts | 237° |
| 2026-04-12 08:09 | 64.96986 | 139.99634 | 25812 ft | 432 kts | 237° |
| 2026-04-12 08:09 | 64.95448 | 139.93442 | 25828 ft | 432 kts | 237° |
| 2026-04-12 08:09 | 64.93926 | 139.87357 | 25838 ft | 435 kts | 237° |
| 2026-04-12 08:10 | 64.92398 | 139.81261 | 25848 ft | 437 kts | 237° |
| 2026-04-12 08:10 | 64.90858 | 139.75131 | 25840 ft | 437 kts | 237° |
| 2026-04-12 08:10 | 64.89299 | 139.68962 | 25845 ft | 438 kts | 237° |
| 2026-04-12 08:10 | 64.87745 | 139.62868 | 25838 ft | 437 kts | 237° |
| 2026-04-12 08:11 | 64.86169 | 139.56711 | 25834 ft | 437 kts | 237° |
| 2026-04-12 08:11 | 64.84611 | 139.50618 | 25838 ft | 437 kts | 237° |
| 2026-04-12 08:11 | 64.83065 | 139.44577 | 25844 ft | 437 kts | 237° |
| 2026-04-12 08:11 | 64.81512 | 139.38518 | 25863 ft | 437 kts | 237° |
| 2026-04-12 08:12 | 64.79939 | 139.32387 | 25855 ft | 437 kts | 236° |
| 2026-04-12 08:12 | 64.78369 | 139.26270 | 25857 ft | 437 kts | 236° |
| 2026-04-12 08:12 | 64.76815 | 139.20233 | 25846 ft | 437 kts | 236° |
| 2026-04-12 08:12 | 64.75266 | 139.14230 | 25845 ft | 437 kts | 236° |
| 2026-04-12 08:13 | 64.73686 | 139.08141 | 25844 ft | 437 kts | 236° |
| 2026-04-12 08:13 | 64.72118 | 139.02115 | 25835 ft | 437 kts | 236° |
| 2026-04-12 08:13 | 64.70551 | 138.96115 | 25829 ft | 437 kts | 236° |
| 2026-04-12 08:13 | 64.68948 | 138.89986 | 25830 ft | 437 kts | 236° |
| 2026-04-12 08:14 | 64.67368 | 138.83952 | 25835 ft | 438 kts | 236° |
| 2026-04-12 08:14 | 64.65786 | 138.77924 | 25844 ft | 437 kts | 236° |
| 2026-04-12 08:14 | 64.64225 | 138.71985 | 25826 ft | 437 kts | 237° |
| 2026-04-12 08:14 | 64.62631 | 138.65942 | 25829 ft | 438 kts | 236° |
| 2026-04-12 08:15 | 64.61032 | 138.59909 | 25834 ft | 438 kts | 236° |
| 2026-04-12 08:15 | 64.59430 | 138.53885 | 25831 ft | 438 kts | 236° |
| 2026-04-12 08:15 | 64.57842 | 138.47931 | 25809 ft | 439 kts | 236° |
| 2026-04-12 08:15 | 64.56231 | 138.41916 | 25818 ft | 439 kts | 236° |
| 2026-04-12 08:16 | 64.54630 | 138.35945 | 25817 ft | 439 kts | 236° |
| 2026-04-12 08:16 | 64.53019 | 138.29959 | 25811 ft | 439 kts | 235° |
| 2026-04-12 08:16 | 64.51392 | 138.23917 | 25808 ft | 439 kts | 235° |
| 2026-04-12 08:16 | 64.49789 | 138.17963 | 25813 ft | 439 kts | 235° |
| 2026-04-12 08:17 | 64.48719 | 138.13991 | 25813 ft | 439 kts | 235° |
| 2026-04-12 08:17 | 64.47094 | 138.07965 | 25812 ft | 440 kts | 235° |
| 2026-04-12 08:17 | 64.44936 | 138.00008 | 25811 ft | 440 kts | 235° |
| 2026-04-12 08:17 | 64.43326 | 137.94098 | 25810 ft | 440 kts | 235° |
| 2026-04-12 08:18 | 64.41685 | 137.88094 | 25809 ft | 440 kts | 235° |
| 2026-04-12 08:18 | 64.40050 | 137.82132 | 25810 ft | 440 kts | 235° |
| 2026-04-12 08:18 | 64.38419 | 137.76202 | 25815 ft | 441 kts | 235° |
| 2026-04-12 08:18 | 64.36776 | 137.70241 | 25816 ft | 441 kts | 235° |
| 2026-04-12 08:19 | 64.35685 | 137.66293 | 25816 ft | 441 kts | 235° |
| 2026-04-12 08:19 | 64.34045 | 137.60376 | 25814 ft | 441 kts | 235° |
| 2026-04-12 08:19 | 64.31853 | 137.52492 | 25804 ft | 441 kts | 235° |
| 2026-04-12 08:19 | 64.30205 | 137.46582 | 25788 ft | 441 kts | 235° |
| 2026-04-12 08:20 | 64.28552 | 137.40666 | 25793 ft | 441 kts | 235° |
| 2026-04-12 08:20 | 64.26904 | 137.34788 | 25795 ft | 442 kts | 234° |
| 2026-04-12 08:20 | 64.25246 | 137.28883 | 25814 ft | 442 kts | 234° |
| 2026-04-12 08:20 | 64.23577 | 137.22949 | 25836 ft | 442 kts | 234° |
| 2026-04-12 08:21 | 64.21907 | 137.17029 | 25841 ft | 442 kts | 234° |
| 2026-04-12 08:21 | 64.20252 | 137.11179 | 25855 ft | 442 kts | 234° |
| 2026-04-12 08:21 | 64.18584 | 137.05307 | 25857 ft | 442 kts | 234° |
| 2026-04-12 08:21 | 64.16908 | 136.99420 | 25861 ft | 442 kts | 234° |
| 2026-04-12 08:22 | 64.15227 | 136.93532 | 25869 ft | 442 kts | 234° |
| 2026-04-12 08:22 | 64.13542 | 136.87653 | 25868 ft | 442 kts | 234° |
| 2026-04-12 08:22 | 64.11855 | 136.81779 | 25845 ft | 442 kts | 234° |
| 2026-04-12 08:22 | 64.10180 | 136.75963 | 25844 ft | 443 kts | 234° |
| 2026-04-12 08:23 | 64.08482 | 136.70087 | 25818 ft | 443 kts | 234° |
| 2026-04-12 08:23 | 64.06791 | 136.64250 | 25823 ft | 443 kts | 234° |
| 2026-04-12 08:23 | 64.05089 | 136.58394 | 25825 ft | 443 kts | 234° |
| 2026-04-12 08:23 | 64.03407 | 136.52629 | 25821 ft | 443 kts | 234° |
| 2026-04-12 08:24 | 64.01698 | 136.46782 | 25826 ft | 443 kts | 234° |
| 2026-04-12 08:24 | 63.99994 | 136.40961 | 25818 ft | 443 kts | 234° |
| 2026-04-12 08:24 | 63.98288 | 136.35124 | 25834 ft | 443 kts | 234° |
| 2026-04-12 08:24 | 63.96608 | 136.29362 | 25847 ft | 443 kts | 234° |
| 2026-04-12 08:25 | 63.94913 | 136.23560 | 25855 ft | 443 kts | 234° |
| 2026-04-12 08:25 | 63.93192 | 136.17693 | 25863 ft | 443 kts | 233° |
| 2026-04-12 08:25 | 63.91483 | 136.11897 | 25870 ft | 444 kts | 233° |
| 2026-04-12 08:25 | 63.89777 | 136.06133 | 25872 ft | 443 kts | 233° |
| 2026-04-12 08:26 | 63.88050 | 136.00356 | 25884 ft | 443 kts | 233° |
| 2026-04-12 08:26 | 63.86312 | 135.94575 | 25891 ft | 444 kts | 233° |
| 2026-04-12 08:26 | 63.84600 | 135.88892 | 25878 ft | 443 kts | 233° |
| 2026-04-12 08:26 | 63.82853 | 135.83092 | 25865 ft | 443 kts | 233° |
| 2026-04-12 08:27 | 63.81128 | 135.77370 | 25839 ft | 444 kts | 233° |
| 2026-04-12 08:27 | 63.79382 | 135.71591 | 25823 ft | 444 kts | 233° |
| 2026-04-12 08:27 | 63.77661 | 135.65903 | 25811 ft | 444 kts | 233° |
| 2026-04-12 08:27 | 63.75923 | 135.60167 | 25802 ft | 444 kts | 233° |
| 2026-04-12 08:28 | 63.74180 | 135.54430 | 25807 ft | 444 kts | 233° |
| 2026-04-12 08:28 | 63.72446 | 135.48737 | 25804 ft | 444 kts | 233° |
| 2026-04-12 08:28 | 63.70694 | 135.42999 | 25800 ft | 444 kts | 233° |
| 2026-04-12 08:28 | 63.68950 | 135.37303 | 25799 ft | 444 kts | 233° |
| 2026-04-12 08:29 | 63.67192 | 135.31569 | 25801 ft | 444 kts | 233° |
| 2026-04-12 08:29 | 63.65465 | 135.25938 | 25801 ft | 444 kts | 233° |
| 2026-04-12 08:29 | 63.63715 | 135.20250 | 25808 ft | 444 kts | 233° |
| 2026-04-12 08:29 | 63.61948 | 135.14522 | 25833 ft | 444 kts | 232° |
| 2026-04-12 08:30 | 63.60206 | 135.08894 | 25857 ft | 444 kts | 232° |
| 2026-04-12 08:30 | 63.58437 | 135.03198 | 25878 ft | 444 kts | 232° |
| 2026-04-12 08:30 | 63.56666 | 134.97508 | 25903 ft | 444 kts | 232° |
| 2026-04-12 08:30 | 63.54915 | 134.91898 | 25909 ft | 444 kts | 232° |
| 2026-04-12 08:31 | 63.53146 | 134.86244 | 25911 ft | 444 kts | 232° |
| 2026-04-12 08:31 | 63.51959 | 134.82461 | 25910 ft | 444 kts | 232° |
| 2026-04-12 08:31 | 63.49619 | 134.75020 | 25907 ft | 444 kts | 232° |
| 2026-04-12 08:31 | 63.47825 | 134.69333 | 25908 ft | 444 kts | 232° |
| 2026-04-12 08:32 | 63.46046 | 134.63705 | 25912 ft | 444 kts | 232° |
| 2026-04-12 08:32 | 63.44282 | 134.58139 | 25918 ft | 444 kts | 232° |
| 2026-04-12 08:32 | 63.42500 | 134.52530 | 25924 ft | 444 kts | 232° |
| 2026-04-12 08:32 | 63.40718 | 134.46939 | 25931 ft | 444 kts | 232° |
| 2026-04-12 08:33 | 63.38933 | 134.41350 | 25933 ft | 444 kts | 232° |
| 2026-04-12 08:33 | 63.37154 | 134.35794 | 25933 ft | 445 kts | 232° |
| 2026-04-12 08:33 | 63.35350 | 134.30167 | 25936 ft | 444 kts | 231° |
| 2026-04-12 08:33 | 63.33562 | 134.24591 | 25934 ft | 444 kts | 231° |
| 2026-04-12 08:34 | 63.31789 | 134.19081 | 25940 ft | 444 kts | 231° |
| 2026-04-12 08:34 | 63.29995 | 134.13524 | 25940 ft | 444 kts | 231° |
| 2026-04-12 08:34 | 63.28188 | 134.07941 | 25937 ft | 445 kts | 231° |
| 2026-04-12 08:34 | 63.26405 | 134.02449 | 25936 ft | 445 kts | 231° |
| 2026-04-12 08:35 | 63.24582 | 133.96848 | 25934 ft | 444 kts | 231° |
| 2026-04-12 08:35 | 63.22767 | 133.91287 | 25937 ft | 445 kts | 231° |
| 2026-04-12 08:35 | 63.20960 | 133.85767 | 25935 ft | 444 kts | 231° |
| 2026-04-12 08:35 | 63.19173 | 133.80319 | 25940 ft | 444 kts | 231° |
| 2026-04-12 08:36 | 63.17353 | 133.74780 | 25936 ft | 444 kts | 231° |
| 2026-04-12 08:36 | 63.15540 | 133.69279 | 25937 ft | 445 kts | 231° |
| 2026-04-12 08:36 | 63.13739 | 133.63831 | 25941 ft | 445 kts | 231° |
| 2026-04-12 08:36 | 63.11912 | 133.58313 | 25943 ft | 445 kts | 231° |
| 2026-04-12 08:37 | 63.10095 | 133.52840 | 25940 ft | 445 kts | 231° |
| 2026-04-12 08:37 | 63.08273 | 133.47369 | 25941 ft | 445 kts | 231° |
| 2026-04-12 08:37 | 63.06433 | 133.41856 | 25942 ft | 445 kts | 231° |
| 2026-04-12 08:37 | 63.04603 | 133.36385 | 25940 ft | 445 kts | 231° |
| 2026-04-12 08:38 | 63.02771 | 133.30914 | 25946 ft | 445 kts | 231° |
| 2026-04-12 08:38 | 63.00959 | 133.25510 | 25940 ft | 444 kts | 231° |
| 2026-04-12 08:38 | 62.99119 | 133.20036 | 25942 ft | 444 kts | 230° |
| 2026-04-12 08:38 | 62.97287 | 133.14601 | 25940 ft | 444 kts | 230° |
| 2026-04-12 08:39 | 62.95466 | 133.09216 | 25940 ft | 444 kts | 231° |
| 2026-04-12 08:39 | 62.93611 | 133.03751 | 25935 ft | 445 kts | 230° |
| 2026-04-12 08:39 | 62.91787 | 132.98392 | 25936 ft | 445 kts | 230° |
| 2026-04-12 08:39 | 62.90554 | 132.94775 | 25934 ft | 445 kts | 230° |
| 2026-04-12 08:40 | 62.88097 | 132.87614 | 25928 ft | 444 kts | 230° |
| 2026-04-12 08:40 | 62.86232 | 132.82219 | 25927 ft | 444 kts | 230° |
| 2026-04-12 08:40 | 62.84370 | 132.76834 | 25929 ft | 444 kts | 230° |
| 2026-04-12 08:40 | 62.82511 | 132.71457 | 25918 ft | 444 kts | 230° |
| 2026-04-12 08:41 | 62.80653 | 132.66084 | 25915 ft | 445 kts | 230° |
| 2026-04-12 08:41 | 62.78808 | 132.60763 | 25917 ft | 444 kts | 230° |
| 2026-04-12 08:41 | 62.76977 | 132.55482 | 25914 ft | 429 kts | 230° |
| 2026-04-12 08:41 | 62.75192 | 132.50345 | 25917 ft | 428 kts | 230° |
| 2026-04-12 08:42 | 62.73385 | 132.45163 | 25911 ft | 432 kts | 231° |
| 2026-04-12 08:42 | 62.71656 | 132.39870 | 25916 ft | 433 kts | 234° |
| 2026-04-12 08:42 | 62.70060 | 132.34338 | 25913 ft | 435 kts | 236° |
| 2026-04-12 08:42 | 62.68589 | 132.28510 | 25913 ft | 436 kts | 239° |
| 2026-04-12 08:43 | 62.67272 | 132.22627 | 25917 ft | 437 kts | 240° |
| 2026-04-12 08:43 | 62.65948 | 132.16672 | 25915 ft | 437 kts | 240° |
| 2026-04-12 08:43 | 62.64632 | 132.10776 | 25911 ft | 437 kts | 240° |
| 2026-04-12 08:43 | 62.63307 | 132.04854 | 25913 ft | 437 kts | 240° |
| 2026-04-12 08:44 | 62.61978 | 131.98932 | 25853 ft | 432 kts | 240° |
| 2026-04-12 08:44 | 62.60694 | 131.93214 | 25584 ft | 417 kts | 240° |
| 2026-04-12 08:44 | 62.59446 | 131.87671 | 25323 ft | 404 kts | 240° |
| 2026-04-12 08:44 | 62.58235 | 131.82312 | 25058 ft | 392 kts | 240° |
| 2026-04-12 08:45 | 62.57054 | 131.77104 | 24796 ft | 381 kts | 240° |
| 2026-04-12 08:45 | 62.55905 | 131.72052 | 24539 ft | 371 kts | 240° |
| 2026-04-12 08:45 | 62.54777 | 131.67107 | 24276 ft | 365 kts | 240° |
| 2026-04-12 08:45 | 62.53661 | 131.62238 | 23961 ft | 367 kts | 240° |
| 2026-04-12 08:46 | 62.52517 | 131.57251 | 23530 ft | 368 kts | 240° |
| 2026-04-12 08:46 | 62.51391 | 131.52359 | 22984 ft | 369 kts | 240° |
| 2026-04-12 08:46 | 62.49105 | 131.42441 | 21683 ft | 373 kts | 240° |
| 2026-04-12 08:47 | 62.47942 | 131.37410 | 21101 ft | 372 kts | 241° |
| 2026-04-12 08:47 | 62.46793 | 131.32437 | 20606 ft | 370 kts | 240° |
| 2026-04-12 08:47 | 62.45658 | 131.27530 | 20109 ft | 367 kts | 240° |
| 2026-04-12 08:47 | 62.44513 | 131.22591 | 19619 ft | 364 kts | 240° |
| 2026-04-12 08:48 | 62.43384 | 131.17738 | 19114 ft | 362 kts | 240° |
| 2026-04-12 08:48 | 62.42260 | 131.12926 | 18653 ft | 359 kts | 240° |
| 2026-04-12 08:48 | 62.41144 | 131.08157 | 18178 ft | 356 kts | 240° |
| 2026-04-12 08:48 | 62.40039 | 131.03451 | 17688 ft | 354 kts | 241° |
| 2026-04-12 08:49 | 62.38923 | 130.98715 | 17183 ft | 353 kts | 241° |
| 2026-04-12 08:49 | 62.37821 | 130.94043 | 16695 ft | 351 kts | 241° |
| 2026-04-12 08:49 | 62.36727 | 130.89416 | 16226 ft | 349 kts | 241° |
| 2026-04-12 08:49 | 62.35631 | 130.84795 | 15743 ft | 347 kts | 241° |
| 2026-04-12 08:50 | 62.34536 | 130.80193 | 15268 ft | 346 kts | 242° |
| 2026-04-12 08:50 | 62.33816 | 130.77170 | 14957 ft | 344 kts | 242° |
| 2026-04-12 08:50 | 62.32363 | 130.71071 | 14329 ft | 342 kts | 242° |
| 2026-04-12 08:50 | 62.31277 | 130.66589 | 13875 ft | 340 kts | 240° |
| 2026-04-12 08:51 | 62.30014 | 130.62321 | 13418 ft | 337 kts | 234° |
| 2026-04-12 08:51 | 62.28551 | 130.58423 | 12968 ft | 335 kts | 227° |
| 2026-04-12 08:51 | 62.26949 | 130.54813 | 12524 ft | 333 kts | 226° |
| 2026-04-12 08:51 | 62.25359 | 130.51332 | 12076 ft | 331 kts | 226° |
| 2026-04-12 08:52 | 62.23759 | 130.47845 | 11627 ft | 330 kts | 226° |
| 2026-04-12 08:52 | 62.22136 | 130.44313 | 11171 ft | 329 kts | 226° |
| 2026-04-12 08:52 | 62.20537 | 130.40822 | 10712 ft | 328 kts | 226° |
| 2026-04-12 08:52 | 62.19476 | 130.38512 | 10424 ft | 327 kts | 227° |
| 2026-04-12 08:53 | 62.17411 | 130.34000 | 10177 ft | 312 kts | 226° |
| 2026-04-12 08:53 | 62.15916 | 130.30727 | 10096 ft | 299 kts | 226° |
| 2026-04-12 08:53 | 62.14502 | 130.27644 | 10018 ft | 285 kts | 226° |
| 2026-04-12 08:53 | 62.13134 | 130.24664 | 9956 ft | 273 kts | 226° |
| 2026-04-12 08:54 | 62.11827 | 130.21831 | 9730 ft | 271 kts | 226° |
| 2026-04-12 08:54 | 62.10495 | 130.18951 | 9413 ft | 270 kts | 226° |
| 2026-04-12 08:54 | 62.09181 | 130.16118 | 9103 ft | 269 kts | 226° |
| 2026-04-12 08:54 | 62.07887 | 130.13325 | 8808 ft | 267 kts | 226° |
| 2026-04-12 08:55 | 62.06587 | 130.10527 | 8511 ft | 266 kts | 226° |
| 2026-04-12 08:55 | 62.05292 | 130.07742 | 8216 ft | 264 kts | 226° |
| 2026-04-12 08:55 | 62.04014 | 130.04987 | 7943 ft | 262 kts | 226° |
| 2026-04-12 08:55 | 62.02732 | 130.02223 | 7659 ft | 261 kts | 226° |
| 2026-04-12 08:56 | 62.01461 | 129.99490 | 7389 ft | 260 kts | 226° |
| 2026-04-12 08:56 | 62.00203 | 129.96791 | 7100 ft | 258 kts | 226° |
| 2026-04-12 08:56 | 61.98936 | 129.94080 | 6828 ft | 257 kts | 226° |
| 2026-04-12 08:56 | 61.97692 | 129.91422 | 6570 ft | 256 kts | 226° |
| 2026-04-12 08:57 | 61.96448 | 129.88768 | 6329 ft | 255 kts | 226° |
| 2026-04-12 08:57 | 61.95204 | 129.86118 | 6059 ft | 254 kts | 226° |
| 2026-04-12 08:57 | 61.93954 | 129.83452 | 5794 ft | 253 kts | 226° |
| 2026-04-12 08:57 | 61.92721 | 129.80829 | 5524 ft | 252 kts | 226° |
| 2026-04-12 08:58 | 61.91489 | 129.78210 | 5262 ft | 252 kts | 226° |
| 2026-04-12 08:58 | 61.90264 | 129.75609 | 4998 ft | 251 kts | 226° |
| 2026-04-12 08:58 | 61.89024 | 129.72989 | 4727 ft | 250 kts | 226° |
| 2026-04-12 08:58 | 61.87896 | 129.70229 | 4427 ft | 248 kts | 245° |
| 2026-04-12 08:59 | 61.87492 | 129.66780 | 4149 ft | 241 kts | 276° |
| 2026-04-12 08:59 | 61.87914 | 129.63423 | 3867 ft | 234 kts | 304° |
| 2026-04-12 08:59 | 61.88567 | 129.61447 | 3689 ft | 231 kts | 311° |
| 2026-04-12 08:59 | 61.89569 | 129.58754 | 3425 ft | 231 kts | 312° |
| 2026-04-12 09:00 | 61.90546 | 129.56107 | 3169 ft | 230 kts | 311° |
| 2026-04-12 09:00 | 61.91656 | 129.53687 | 2861 ft | 226 kts | 334° |
| 2026-04-12 09:00 | 61.93092 | 129.52928 | 2790 ft | 209 kts | 5° |
| 2026-04-12 09:00 | 61.94436 | 129.53744 | 2799 ft | 201 kts | 31° |
| 2026-04-12 09:01 | 61.95537 | 129.55425 | 2761 ft | 191 kts | 36° |
| 2026-04-12 09:01 | 61.96556 | 129.57056 | 2719 ft | 175 kts | 36° |
| 2026-04-12 09:01 | 61.97474 | 129.58527 | 2603 ft | 156 kts | 36° |
| 2026-04-12 09:01 | 61.98290 | 129.59831 | 2577 ft | 141 kts | 36° |
| 2026-04-12 09:02 | 61.99070 | 129.61078 | 2576 ft | 141 kts | 36° |
| 2026-04-12 09:02 | 61.99850 | 129.62321 | 2496 ft | 141 kts | 36° |
| 2026-04-12 09:02 | 62.00626 | 129.63560 | 2318 ft | 139 kts | 35° |
| 2026-04-12 09:02 | 62.01394 | 129.64790 | 2128 ft | 139 kts | 35° |
| 2026-04-12 09:03 | 62.02170 | 129.66029 | 1922 ft | 138 kts | 36° |
| 2026-04-12 09:03 | 62.02925 | 129.67242 | 1702 ft | 132 kts | 34° |
| 2026-04-12 09:03 | 62.03630 | 129.68370 | 1487 ft | 126 kts | 35° |
| 2026-04-12 09:03 | 62.04330 | 129.69488 | 1318 ft | 127 kts | 34° |
| 2026-04-12 09:04 | 62.05035 | 129.70615 | 1135 ft | 127 kts | 36° |
| 2026-04-12 09:04 | 62.05750 | 129.71759 | 954 ft | 128 kts | 36° |
| 2026-04-12 09:04 | 62.06465 | 129.72905 | 757 ft | 129 kts | 34° |
| 2026-04-12 09:04 | 62.07175 | 129.74048 | 560 ft | 130 kts | 34° |
| 2026-04-12 09:05 | 62.07910 | 129.75218 | 384 ft | 131 kts | 35° |
| 2026-04-12 09:05 | 62.08616 | 129.76346 | 302 ft | 118 kts | 39° |
| 2026-04-12 09:05 | 62.09142 | 129.77191 | 298 ft | 69 kts | 37° |
| 2026-04-12 09:05 | 62.09436 | 129.77663 | 298 ft | 44 kts | 37° |
| 2026-04-12 09:06 | 62.09655 | 129.78012 | 298 ft | 34 kts | 40° |
| 2026-04-12 09:06 | 62.09817 | 129.78270 | 298 ft | 20 kts | 37° |
| 2026-04-12 09:06 | 62.09929 | 129.78430 | 298 ft | 13 kts | 12° |
| 2026-04-12 09:06 | 62.09998 | 129.78313 | 298 ft | 13 kts | 309° |
| 2026-04-12 09:07 | 62.10061 | 129.78154 | 298 ft | 14 kts | 309° |
| 2026-04-12 09:07 | 62.10117 | 129.77979 | 298 ft | 14 kts | 304° |
| 2026-04-12 09:07 | 62.10177 | 129.77797 | 299 ft | 14 kts | 307° |
| 2026-04-12 09:07 | 62.10229 | 129.77631 | 301 ft | 13 kts | 301° |
| 2026-04-12 09:08 | 62.10213 | 129.77449 | 301 ft | 13 kts | 243° |
| 2026-04-12 09:08 | 62.10168 | 129.77267 | 301 ft | 14 kts | 242° |
| 2026-04-12 09:08 | 62.10119 | 129.77077 | 301 ft | 14 kts | 239° |
| 2026-04-12 09:08 | 62.10041 | 129.76930 | 302 ft | 15 kts | 214° |
| 2026-04-12 09:09 | 62.09950 | 129.76800 | 303 ft | 15 kts | 214° |
| 2026-04-12 09:09 | 62.09867 | 129.76675 | 305 ft | 14 kts | 216° |
| 2026-04-12 09:09 | 62.09781 | 129.76553 | 305 ft | 15 kts | 213° |
| 2026-04-12 09:09 | 62.09691 | 129.76422 | 305 ft | 16 kts | 215° |
| 2026-04-12 09:10 | 62.09629 | 129.76343 | 305 ft | 10 kts | 211° |
| 2026-04-12 09:10 | 62.09611 | 129.76320 | 305 ft | 0 kts | 212° |
| 2026-04-12 09:10 | 62.09609 | 129.76317 | 305 ft | 0 kts | 212° |
| 2026-04-12 09:13 | 62.09611 | 129.76321 | 305 ft | 2 kts | 212° |
| 2026-04-12 09:13 | 62.09623 | 129.76337 | 305 ft | 0 kts | 212° |
| 2026-04-12 09:13 | 62.09636 | 129.76347 | 305 ft | 2 kts | 178° |
| 2026-04-12 09:13 | 62.09650 | 129.76338 | 305 ft | 2 kts | 143° |
| 2026-04-12 09:14 | 62.09658 | 129.76320 | 305 ft | 1 kts | 115° |
| 2026-04-12 09:14 | 62.09665 | 129.76292 | 305 ft | 2 kts | 125° |
| 2026-04-12 09:14 | 62.09669 | 129.76280 | 305 ft | 1 kts | 121° |
| 2026-04-12 09:14 | 62.09670 | 129.76276 | 305 ft | 0 kts | 120° |